Time;durP1;ratioP1;P1;durP2;ratioP2;P2;SDS_P1;SDS_P2;PMS_P1;PMS_P2;Temp;Humidity;BMP_temperature;BMP_pressure;BME280_temperature;BME280_humidity;BME280_pressure;Samples;Min_cycle;Max_cycle;Signal;HPM_P1;HPM_P2
2022/03/25 00:01:16;;;;;;;;;;;12.20;29.20;;;;;;5068282;28;19932;-79
2022/03/25 00:03:44;;;;;;;;;;;12.20;29.30;;;;;;5062369;28;19913;-78
2022/03/25 00:06:11;;;;;;;;;;;12.20;28.80;;;;;;5062214;28;20304;-78
2022/03/25 00:08:38;;;;;;;;;;;12.30;28.90;;;;;;5060529;28;19920;-78
2022/03/25 00:11:05;;;;;;;;;;;12.30;29.10;;;;;;5070353;28;19930;-79
2022/03/25 00:13:32;;;;;;;;;;;12.20;29.00;;;;;;5074807;28;19920;-78
2022/03/25 00:15:59;;;;;;;;;;;12.30;28.90;;;;;;5062816;28;20356;-79
2022/03/25 00:18:26;;;;;;;;;;;12.30;28.90;;;;;;5070430;28;20292;-78
2022/03/25 00:20:53;;;;;;;;;;;12.30;29.20;;;;;;5070654;28;20315;-79
2022/03/25 00:23:19;;;;;;;;;;;12.20;29.20;;;;;;5078734;28;19974;-79
2022/03/25 00:25:46;;;;;;;;;;;12.20;29.20;;;;;;5077926;28;20295;-78
2022/03/25 00:28:14;;;;;;;;;;;12.10;29.20;;;;;;5050174;28;19936;-80
2022/03/25 00:30:40;;;;;;;;;;;12.10;29.10;;;;;;5049585;28;19960;-78
2022/03/25 00:33:07;;;;;;;;;;;12.20;29.30;;;;;;5083594;28;19928;-79
2022/03/25 00:35:34;;;;;;;;;;;12.10;29.30;;;;;;5082345;28;19915;-78
2022/03/25 00:38:01;;;;;;;;;;;12.00;29.70;;;;;;5057741;28;19927;-80
2022/03/25 00:40:29;;;;;;;;;;;12.00;29.70;;;;;;5071391;28;19920;-79
2022/03/25 00:42:56;;;;;;;;;;;11.90;29.60;;;;;;5057364;28;20506;-79
2022/03/25 00:45:23;;;;;;;;;;;11.90;29.50;;;;;;5065458;28;19904;-79
2022/03/25 00:47:49;;;;;;;;;;;11.90;29.60;;;;;;5085286;28;19930;-79
2022/03/25 00:50:16;;;;;;;;;;;11.90;29.70;;;;;;5074741;28;19928;-80
2022/03/25 00:52:45;;;;;;;;;;;11.80;29.70;;;;;;5074410;28;19924;-79
2022/03/25 00:55:12;;;;;;;;;;;11.80;29.50;;;;;;5083526;28;19912;-79
2022/03/25 00:57:39;;;;;;;;;;;11.80;29.70;;;;;;5080195;28;19915;-80
2022/03/25 01:00:06;;;;;;;;;;;11.80;29.90;;;;;;5074371;28;19933;-80
2022/03/25 01:02:34;;;;;;;;;;;11.70;30.00;;;;;;5065945;28;19928;-79
2022/03/25 01:05:01;;;;;;;;;;;11.60;30.00;;;;;;5078346;28;20339;-79
2022/03/25 01:07:28;;;;;;;;;;;11.60;30.00;;;;;;5051231;28;19964;-79
2022/03/25 01:09:55;;;;;;;;;;;11.60;30.00;;;;;;5073984;28;19931;-80
2022/03/25 01:12:21;;;;;;;;;;;11.50;30.30;;;;;;5070912;28;20329;-78
2022/03/25 01:14:49;;;;;;;;;;;11.50;30.10;;;;;;5064768;28;19905;-78
2022/03/25 01:17:16;;;;;;;;;;;11.50;30.00;;;;;;5055358;28;19924;-78
2022/03/25 01:19:44;;;;;;;;;;;11.50;30.00;;;;;;5071424;28;19943;-80
2022/03/25 01:22:11;;;;;;;;;;;11.50;30.30;;;;;;5074367;28;19999;-78
2022/03/25 01:24:38;;;;;;;;;;;11.50;30.00;;;;;;5080378;28;19943;-78
2022/03/25 01:27:05;;;;;;;;;;;11.50;29.80;;;;;;5075198;28;19971;-78
2022/03/25 01:29:32;;;;;;;;;;;11.50;30.00;;;;;;5066482;28;19904;-79
2022/03/25 01:31:59;;;;;;;;;;;11.50;30.20;;;;;;5079852;28;19904;-79
2022/03/25 01:34:26;;;;;;;;;;;11.50;30.10;;;;;;5065774;28;19935;-79
2022/03/25 01:36:53;;;;;;;;;;;11.50;30.20;;;;;;5069423;28;20434;-78
2022/03/25 01:39:20;;;;;;;;;;;11.50;30.00;;;;;;5059176;28;20011;-79
2022/03/25 01:41:47;;;;;;;;;;;11.50;29.80;;;;;;5057735;28;20350;-79
2022/03/25 01:44:23;;;;;;;;;;;11.50;29.90;;;;;;5060911;28;19924;-78
2022/03/25 01:46:49;;;;;;;;;;;11.50;30.00;;;;;;5075644;28;19924;-79
2022/03/25 01:49:19;;;;;;;;;;;11.50;30.00;;;;;;5048383;28;28542;-79
2022/03/25 01:51:47;;;;;;;;;;;11.50;30.00;;;;;;5075144;28;20328;-79
2022/03/25 01:54:27;;;;;;;;;;;11.40;30.10;;;;;;5062412;28;20376;-79
2022/03/25 01:56:58;;;;;;;;;;;11.40;30.50;;;;;;5082071;28;19932;-79
2022/03/25 01:59:26;;;;;;;;;;;11.40;30.00;;;;;;5072972;28;20392;-78
2022/03/25 02:01:56;;;;;;;;;;;11.30;30.50;;;;;;5080645;28;20342;-78
2022/03/25 02:04:23;;;;;;;;;;;11.30;30.00;;;;;;5066562;28;19935;-78
2022/03/25 02:06:51;;;;;;;;;;;11.30;30.40;;;;;;5063499;28;19955;-78
2022/03/25 02:09:18;;;;;;;;;;;11.30;30.30;;;;;;5085109;28;19980;-80
2022/03/25 02:11:45;;;;;;;;;;;11.30;30.30;;;;;;5072532;28;20133;-79
2022/03/25 02:14:12;;;;;;;;;;;11.30;30.00;;;;;;5076978;28;19964;-77
2022/03/25 02:16:39;;;;;;;;;;;11.40;30.50;;;;;;5053722;28;19925;-78
2022/03/25 02:19:08;;;;;;;;;;;11.30;30.20;;;;;;5085005;28;20022;-77
2022/03/25 02:21:38;;;;;;;;;;;11.40;30.00;;;;;;5062475;28;19939;-77
2022/03/25 02:24:06;;;;;;;;;;;11.40;30.00;;;;;;5081857;28;19928;-78
2022/03/25 02:26:34;;;;;;;;;;;11.40;30.00;;;;;;5081532;28;19916;-77
2022/03/25 02:29:01;;;;;;;;;;;11.30;30.00;;;;;;5075752;28;19928;-78
2022/03/25 02:31:27;;;;;;;;;;;11.40;30.10;;;;;;5069333;28;19928;-78
2022/03/25 02:33:59;;;;;;;;;;;11.30;30.10;;;;;;5077393;28;19928;-77
2022/03/25 02:36:26;;;;;;;;;;;11.30;30.00;;;;;;5056862;28;20732;-77
2022/03/25 02:38:53;;;;;;;;;;;11.30;30.30;;;;;;5070998;28;19931;-77
2022/03/25 02:41:20;;;;;;;;;;;11.30;30.00;;;;;;5063121;28;21557;-77
2022/03/25 02:43:47;;;;;;;;;;;11.20;30.20;;;;;;5074145;28;20196;-78
2022/03/25 02:46:13;;;;;;;;;;;11.20;30.50;;;;;;5062095;28;20343;-77
2022/03/25 02:48:40;;;;;;;;;;;11.10;30.70;;;;;;5072416;28;20400;-77
2022/03/25 02:51:07;;;;;;;;;;;11.10;30.50;;;;;;5072492;28;19928;-77
2022/03/25 02:53:34;;;;;;;;;;;11.00;30.70;;;;;;5061413;28;19928;-79
2022/03/25 02:56:00;;;;;;;;;;;11.00;31.00;;;;;;5060766;28;19924;-79
2022/03/25 02:58:27;;;;;;;;;;;10.90;31.20;;;;;;5061947;28;19929;-78
2022/03/25 03:00:54;;;;;;;;;;;10.80;31.30;;;;;;5069164;28;19928;-77
2022/03/25 03:03:21;;;;;;;;;;;10.80;31.30;;;;;;5068196;28;19931;-78
2022/03/25 03:05:48;;;;;;;;;;;10.70;31.40;;;;;;5070821;28;19995;-78
2022/03/25 03:08:15;;;;;;;;;;;10.70;31.50;;;;;;5074074;28;19925;-78
2022/03/25 03:10:42;;;;;;;;;;;10.60;31.80;;;;;;5070269;28;19929;-79
2022/03/25 03:13:09;;;;;;;;;;;10.50;31.60;;;;;;5086430;28;19928;-78
2022/03/25 03:15:37;;;;;;;;;;;10.50;31.90;;;;;;5076441;28;19908;-78
2022/03/25 03:18:04;;;;;;;;;;;10.40;31.90;;;;;;5077180;28;19928;-77
2022/03/25 03:20:32;;;;;;;;;;;10.40;32.30;;;;;;5074873;28;19924;-77
2022/03/25 03:22:59;;;;;;;;;;;10.30;32.10;;;;;;5068673;28;19928;-78
2022/03/25 03:25:26;;;;;;;;;;;10.30;31.90;;;;;;5070727;28;19919;-79
2022/03/25 03:27:53;;;;;;;;;;;10.30;31.80;;;;;;5085778;28;20347;-78
2022/03/25 03:30:20;;;;;;;;;;;10.30;31.90;;;;;;5091833;28;19932;-78
2022/03/25 03:32:47;;;;;;;;;;;10.30;32.00;;;;;;5066062;28;19928;-79
2022/03/25 03:35:14;;;;;;;;;;;10.40;31.80;;;;;;5075861;28;20410;-78
2022/03/25 03:37:44;;;;;;;;;;;10.40;31.90;;;;;;5084455;28;19947;-78
2022/03/25 03:40:12;;;;;;;;;;;10.40;31.90;;;;;;5074707;28;19909;-78
2022/03/25 03:42:39;;;;;;;;;;;10.30;32.00;;;;;;5082472;28;19928;-79
2022/03/25 03:45:09;;;;;;;;;;;10.30;31.90;;;;;;5070700;28;19981;-77
2022/03/25 03:47:36;;;;;;;;;;;10.20;31.80;;;;;;5069258;28;20011;-78
2022/03/25 03:50:04;;;;;;;;;;;10.20;32.40;;;;;;5058706;28;19925;-77
2022/03/25 03:52:31;;;;;;;;;;;10.20;32.60;;;;;;5078313;28;20816;-79
2022/03/25 03:55:03;;;;;;;;;;;10.10;32.40;;;;;;5069218;28;19924;-77
2022/03/25 03:57:30;;;;;;;;;;;10.10;32.80;;;;;;5069289;28;19928;-77
2022/03/25 03:59:57;;;;;;;;;;;10.20;32.40;;;;;;5072227;28;19928;-77
2022/03/25 04:02:24;;;;;;;;;;;10.20;31.80;;;;;;5064960;28;20308;-78
2022/03/25 04:04:51;;;;;;;;;;;10.30;31.80;;;;;;5085449;28;19925;-77
2022/03/25 04:07:19;;;;;;;;;;;10.30;31.90;;;;;;5076735;28;19932;-78
2022/03/25 04:09:46;;;;;;;;;;;10.40;31.90;;;;;;5075357;28;19931;-77
2022/03/25 04:12:13;;;;;;;;;;;10.50;31.40;;;;;;5076551;28;19925;-79
2022/03/25 04:14:39;;;;;;;;;;;10.60;31.10;;;;;;5076425;28;19938;-78
2022/03/25 04:17:07;;;;;;;;;;;10.60;31.70;;;;;;5075705;28;20370;-77
2022/03/25 04:19:34;;;;;;;;;;;10.60;31.30;;;;;;5081555;28;19920;-78
2022/03/25 04:22:00;;;;;;;;;;;10.60;31.10;;;;;;5079888;28;19931;-78
2022/03/25 04:24:27;;;;;;;;;;;10.60;31.10;;;;;;5062436;28;19924;-77
2022/03/25 04:26:54;;;;;;;;;;;10.70;31.00;;;;;;5060809;28;19975;-78
2022/03/25 04:29:22;;;;;;;;;;;10.60;32.20;;;;;;5073554;28;19947;-77
2022/03/25 04:31:48;;;;;;;;;;;10.70;31.20;;;;;;5075851;28;20477;-77
2022/03/25 04:34:16;;;;;;;;;;;10.70;31.00;;;;;;5080030;28;20334;-78
2022/03/25 04:36:42;;;;;;;;;;;10.70;31.10;;;;;;5073214;28;19924;-78
2022/03/25 04:39:09;;;;;;;;;;;10.60;31.70;;;;;;5071522;28;19932;-77
2022/03/25 04:41:36;;;;;;;;;;;10.60;31.20;;;;;;5069270;28;19955;-77
2022/03/25 04:44:03;;;;;;;;;;;10.70;31.60;;;;;;5070657;28;19925;-79
2022/03/25 04:46:30;;;;;;;;;;;10.80;30.70;;;;;;5069087;28;20316;-78
2022/03/25 04:48:57;;;;;;;;;;;10.70;31.00;;;;;;5075853;28;19917;-78
2022/03/25 04:51:23;;;;;;;;;;;10.70;31.30;;;;;;5073013;28;19962;-78
2022/03/25 04:53:50;;;;;;;;;;;10.60;31.50;;;;;;5075718;28;19929;-79
2022/03/25 04:56:18;;;;;;;;;;;10.50;31.30;;;;;;5071591;28;20413;-77
2022/03/25 04:58:45;;;;;;;;;;;10.50;31.50;;;;;;5070857;28;19925;-78
2022/03/25 05:01:12;;;;;;;;;;;10.50;31.70;;;;;;5070475;28;19932;-78
2022/03/25 05:03:39;;;;;;;;;;;10.40;31.80;;;;;;5073138;28;20013;-79
2022/03/25 05:06:05;;;;;;;;;;;10.50;31.50;;;;;;5078053;28;19963;-78
2022/03/25 05:08:32;;;;;;;;;;;10.50;31.60;;;;;;5074815;28;19970;-77
2022/03/25 05:11:04;;;;;;;;;;;10.50;31.50;;;;;;5076876;28;19954;-78
2022/03/25 05:13:30;;;;;;;;;;;10.50;31.50;;;;;;5071121;28;20397;-77
2022/03/25 05:15:57;;;;;;;;;;;10.50;31.10;;;;;;5090753;28;19967;-78
2022/03/25 05:18:24;;;;;;;;;;;10.50;31.20;;;;;;5067799;28;20020;-77
2022/03/25 05:20:51;;;;;;;;;;;10.60;31.00;;;;;;5068310;28;20327;-79
2022/03/25 05:23:18;;;;;;;;;;;10.60;31.10;;;;;;5070742;28;19924;-77
2022/03/25 05:25:44;;;;;;;;;;;10.50;31.30;;;;;;5076498;28;19939;-77
2022/03/25 05:28:12;;;;;;;;;;;10.50;31.10;;;;;;5071192;28;19925;-79
2022/03/25 05:30:39;;;;;;;;;;;10.50;31.00;;;;;;5064573;28;19968;-78
2022/03/25 05:33:06;;;;;;;;;;;10.50;31.40;;;;;;5064155;28;19924;-78
2022/03/25 05:35:33;;;;;;;;;;;10.40;31.90;;;;;;5077603;28;20396;-78
2022/03/25 05:38:00;;;;;;;;;;;10.40;31.60;;;;;;5079205;28;19932;-78
2022/03/25 05:40:27;;;;;;;;;;;10.40;31.90;;;;;;5078044;28;19928;-78
2022/03/25 05:42:54;;;;;;;;;;;10.30;31.80;;;;;;5088447;28;19929;-79
2022/03/25 05:45:21;;;;;;;;;;;10.30;32.00;;;;;;5075817;28;19909;-79
2022/03/25 05:47:49;;;;;;;;;;;10.30;32.20;;;;;;5073866;28;19928;-79
2022/03/25 05:50:16;;;;;;;;;;;10.20;32.50;;;;;;5080096;28;20358;-78
2022/03/25 05:52:43;;;;;;;;;;;10.20;32.40;;;;;;5063226;28;19912;-78
2022/03/25 05:55:12;;;;;;;;;;;10.20;32.40;;;;;;5076984;28;20449;-78
2022/03/25 05:57:39;;;;;;;;;;;10.10;33.70;;;;;;5076871;28;19986;-78
2022/03/25 06:00:08;;;;;;;;;;;9.90;35.90;;;;;;5075185;28;20177;-78
2022/03/25 06:02:36;;;;;;;;;;;9.80;34.80;;;;;;5072251;28;19912;-79
2022/03/25 06:05:03;;;;;;;;;;;9.70;34.20;;;;;;5071498;28;19915;-84
2022/03/25 06:07:37;;;;;;;;;;;9.70;33.90;;;;;;5074110;28;19937;-79
2022/03/25 06:10:04;;;;;;;;;;;9.70;34.00;;;;;;5082237;28;19947;-79
2022/03/25 06:12:31;;;;;;;;;;;9.70;33.90;;;;;;5072710;28;19924;-79
2022/03/25 06:14:58;;;;;;;;;;;9.80;33.70;;;;;;5060439;28;19925;-78
2022/03/25 06:17:26;;;;;;;;;;;9.90;33.50;;;;;;5057100;28;20363;-78
2022/03/25 06:19:52;;;;;;;;;;;9.90;33.60;;;;;;5078013;28;19929;-79
2022/03/25 06:22:19;;;;;;;;;;;10.00;33.60;;;;;;5073264;28;19978;-78
2022/03/25 06:24:46;;;;;;;;;;;10.10;32.90;;;;;;5082173;28;20470;-79
2022/03/25 06:27:13;;;;;;;;;;;10.20;33.10;;;;;;5078577;28;19931;-78
2022/03/25 06:29:39;;;;;;;;;;;10.20;32.80;;;;;;5071749;28;19924;-78
2022/03/25 06:32:07;;;;;;;;;;;10.20;33.40;;;;;;5072613;28;20420;-79
2022/03/25 06:34:34;;;;;;;;;;;10.30;32.70;;;;;;5085287;28;19950;-79
2022/03/25 06:37:01;;;;;;;;;;;10.30;33.20;;;;;;5074966;28;19974;-78
2022/03/25 06:39:29;;;;;;;;;;;10.30;33.10;;;;;;5059508;28;19951;-79
2022/03/25 06:41:56;;;;;;;;;;;10.30;33.10;;;;;;5072806;28;19978;-78
2022/03/25 06:44:22;;;;;;;;;;;10.30;33.20;;;;;;5082129;28;19974;-79
2022/03/25 06:46:49;;;;;;;;;;;10.40;32.90;;;;;;5077054;28;20359;-80
2022/03/25 06:49:17;;;;;;;;;;;10.40;32.80;;;;;;5076219;28;19952;-76
2022/03/25 06:51:43;;;;;;;;;;;10.50;32.30;;;;;;5078781;28;19955;-78
2022/03/25 06:54:10;;;;;;;;;;;10.60;32.20;;;;;;5060181;28;19932;-79
2022/03/25 06:56:37;;;;;;;;;;;10.60;32.40;;;;;;5073401;28;19928;-78
2022/03/25 06:59:04;;;;;;;;;;;10.60;32.20;;;;;;5077604;28;19951;-78
2022/03/25 07:01:32;;;;;;;;;;;10.70;32.20;;;;;;5078352;28;19925;-79
2022/03/25 07:03:59;;;;;;;;;;;10.80;32.00;;;;;;5071486;28;20030;-78
2022/03/25 07:06:26;;;;;;;;;;;10.90;31.40;;;;;;5076948;28;19928;-80
2022/03/25 07:08:55;;;;;;;;;;;11.00;31.50;;;;;;5059874;28;19924;-78
2022/03/25 07:11:22;;;;;;;;;;;11.10;31.70;;;;;;5080629;28;19974;-79
2022/03/25 07:13:49;;;;;;;;;;;11.20;32.60;;;;;;5074352;28;20057;-79
2022/03/25 07:16:17;;;;;;;;;;;11.30;31.60;;;;;;5071602;28;20396;-78
2022/03/25 07:18:44;;;;;;;;;;;11.40;31.70;;;;;;5061697;28;21714;-79
2022/03/25 07:21:12;;;;;;;;;;;11.50;31.30;;;;;;5071609;28;20380;-78
2022/03/25 07:23:39;;;;;;;;;;;11.70;30.60;;;;;;5074718;28;19928;-79
2022/03/25 07:26:06;;;;;;;;;;;11.80;30.50;;;;;;5078074;28;19925;-78
2022/03/25 07:28:34;;;;;;;;;;;12.00;29.90;;;;;;5077951;28;19925;-78
2022/03/25 07:31:01;;;;;;;;;;;12.20;29.60;;;;;;5058486;28;19924;-78
2022/03/25 07:33:28;;;;;;;;;;;12.30;30.20;;;;;;5077334;28;20301;-78
2022/03/25 07:35:55;;;;;;;;;;;12.40;30.00;;;;;;5084273;28;20450;-79
2022/03/25 07:38:22;;;;;;;;;;;12.50;29.40;;;;;;5060011;28;19925;-79
2022/03/25 07:40:49;;;;;;;;;;;12.70;29.50;;;;;;5064918;28;19928;-79
2022/03/25 07:43:16;;;;;;;;;;;12.80;29.30;;;;;;5071886;28;19925;-80
2022/03/25 07:45:43;;;;;;;3.70;2.00;;;13.00;29.60;;;;;;5056251;28;19928;-79
2022/03/25 07:48:10;;;;;;;3.05;1.77;;;13.10;28.90;;;;;;5076053;28;20114;-79
2022/03/25 07:50:37;;;;;;;2.45;1.88;;;13.30;29.30;;;;;;5077032;28;20058;-78
2022/03/25 07:53:04;;;;;;;3.42;1.90;;;13.40;29.20;;;;;;5079939;28;20040;-79
2022/03/25 07:55:31;;;;;;;3.30;2.30;;;13.60;29.20;;;;;;5058572;28;20041;-80
2022/03/25 07:57:58;;;;;;;4.25;2.03;;;13.80;28.40;;;;;;5071605;28;20059;-79
2022/03/25 08:00:25;;;;;;;3.05;1.92;;;13.90;28.00;;;;;;5064554;28;20406;-79
2022/03/25 08:02:53;;;;;;;3.03;1.90;;;14.20;27.70;;;;;;5052408;28;20536;-79
2022/03/25 08:05:21;;;;;;;2.75;1.92;;;14.30;28.10;;;;;;5057639;28;20415;-79
2022/03/25 08:07:52;;;;;;;2.72;2.05;;;14.50;28.00;;;;;;5058539;28;20470;-80
2022/03/25 08:10:25;;;;;;;3.97;2.07;;;14.70;27.20;;;;;;5067530;28;20455;-80
2022/03/25 08:12:56;;;;;;;5.25;2.25;;;14.90;26.90;;;;;;5060993;28;20401;-78
2022/03/25 08:15:24;;;;;;;2.97;2.17;;;15.00;26.80;;;;;;5060524;28;20459;-78
2022/03/25 08:17:59;;;;;;;3.42;2.40;;;15.20;27.50;;;;;;5056094;28;20407;-80
2022/03/25 08:20:41;;;;;;;4.65;1.88;;;15.40;27.50;;;;;;5067959;28;20397;-78
2022/03/25 08:28:54;;;;;;;4.10;2.08;;;16.00;27.30;;;;;;5055427;28;20966;-79
2022/03/25 12:04:09;;;;;;;11.70;10.00;;;21.50;20.60;;;;;;5234613;23;21134;-78
2022/03/25 12:07:00;;;;;;;11.07;9.80;;;21.70;20.70;;;;;;4943284;28;20422;-79
2022/03/25 12:09:35;;;;;;;12.23;9.95;;;21.70;19.80;;;;;;4931067;28;20758;-75
2022/03/25 12:12:03;;;;;;;10.70;9.07;;;21.80;21.10;;;;;;4937811;29;20486;-77
2022/03/25 12:14:36;;;;;;;12.13;10.02;;;22.00;21.50;;;;;;4940589;28;20428;-77
2022/03/25 12:17:07;;;;;;;12.52;9.30;;;22.30;20.60;;;;;;4942455;29;20433;-77
2022/03/25 12:19:39;;;;;;;12.45;9.88;;;22.30;20.00;;;;;;4953310;28;20416;-78
2022/03/25 12:22:21;;;;;;;11.48;8.48;;;22.30;20.60;;;;;;4934072;28;20451;-76
2022/03/25 12:24:49;;;;;;;11.20;9.38;;;22.70;21.40;;;;;;4956308;28;21313;-77
2022/03/25 12:27:16;;;;;;;14.33;10.13;;;22.70;20.60;;;;;;4947319;29;20425;-78
2022/03/25 12:29:51;;;;;;;13.45;9.88;;;22.70;21.20;;;;;;4958027;28;20425;-77
2022/03/25 12:32:21;;;;;;;11.13;9.93;;;22.70;21.00;;;;;;4952590;29;20496;-78
2022/03/25 12:34:59;;;;;;;11.88;9.48;;;22.60;20.20;;;;;;4934895;29;20944;-79
2022/03/25 12:37:46;;;;;;;11.52;9.15;;;22.70;20.70;;;;;;4927170;29;20426;-79
2022/03/25 12:40:20;;;;;;;10.57;8.98;;;22.40;19.30;;;;;;4943783;28;20479;-79
2022/03/25 12:42:50;;;;;;;11.32;8.88;;;22.70;20.00;;;;;;4935348;28;20405;-77
2022/03/25 12:45:25;;;;;;;14.98;9.48;;;22.70;20.00;;;;;;4940818;28;20055;-78
2022/03/25 12:47:52;;;;;;;;;;;22.80;19.50;;;;;;4952905;28;20053;-76
2022/03/25 12:50:19;;;;;;;;;;;22.80;19.70;;;;;;4935349;29;19923;-78
2022/03/25 12:52:46;;;;;;;9.68;8.57;;;23.10;19.70;;;;;;4940900;29;20444;-77
2022/03/25 12:55:15;;;;;;;12.73;9.68;;;23.10;20.10;;;;;;4952967;29;20480;-77
2022/03/25 12:57:45;;;;;;;13.18;9.52;;;23.20;18.80;;;;;;4942452;28;20419;-77
2022/03/25 13:00:13;;;;;;;14.25;8.93;;;23.10;19.00;;;;;;4948396;28;20431;-77
2022/03/25 13:02:45;;;;;;;9.55;8.38;;;23.20;20.00;;;;;;4923224;29;20055;-77
2022/03/25 13:05:18;;;;;;;12.37;8.40;;;23.00;19.00;;;;;;4943584;29;20214;-77
2022/03/25 13:07:48;;;;;;;;;;;23.00;19.40;;;;;;4935887;29;20055;-78
2022/03/25 13:10:15;;;;;;;;;;;22.60;18.30;;;;;;4931046;29;19973;-77
2022/03/25 13:12:43;;;;;;;;;;;22.50;19.00;;;;;;4934478;28;19922;-77
2022/03/25 13:15:11;;;;;;;;;;;22.50;19.10;;;;;;4954714;28;20386;-77
2022/03/25 13:17:40;;;;;;;;;;;22.60;18.60;;;;;;4940576;28;19930;-77
2022/03/25 13:20:27;;;;;;;;;;;22.40;19.10;;;;;;4946314;29;19926;-78
2022/03/25 13:23:00;;;;;;;;;;;22.40;18.60;;;;;;4933889;29;19957;-77
2022/03/25 13:25:28;;;;;;;;;;;22.50;19.00;;;;;;4926270;29;19992;-77
2022/03/25 13:27:57;;;;;;;10.10;7.95;;;22.90;19.00;;;;;;4930657;29;19930;-78
2022/03/25 13:30:26;;;;;;;;;;;22.90;18.30;;;;;;4943275;28;20067;-77
2022/03/25 13:33:02;;;;;;;10.90;7.78;;;22.70;19.00;;;;;;4948494;29;19922;-78
2022/03/25 13:35:35;;;;;;;13.90;8.45;;;22.80;18.90;;;;;;4936160;29;20511;-76
2022/03/25 13:38:05;;;;;;;9.73;8.48;;;22.90;18.70;;;;;;4942306;28;20110;-79
2022/03/25 13:40:35;;;;;;;12.23;8.93;;;23.10;18.90;;;;;;4951064;28;20060;-76
2022/03/25 13:43:05;;;;;;;9.60;7.85;;;23.20;17.90;;;;;;4934555;29;20051;-76
2022/03/25 13:45:32;;;;;;;11.50;7.63;;;23.00;17.90;;;;;;4941021;28;20059;-78
2022/03/25 13:48:05;;;;;;;9.27;7.90;;;22.90;18.40;;;;;;4932852;28;20074;-77
2022/03/25 13:50:46;;;;;;;10.93;8.73;;;22.90;18.30;;;;;;4938293;28;20421;-77
2022/03/25 13:53:14;;;;;;;10.52;8.15;;;23.00;18.20;;;;;;4931103;29;20126;-78
2022/03/25 13:55:42;;;;;;;9.75;8.07;;;23.20;18.10;;;;;;4940982;29;20503;-78
2022/03/25 13:58:32;;;;;;;10.95;8.15;;;23.20;18.40;;;;;;4950791;28;20578;-77
2022/03/25 14:00:59;;;;;;;12.90;8.75;;;23.30;17.90;;;;;;4949464;28;20054;-78
2022/03/25 14:03:31;;;;;;;8.90;7.90;;;23.40;17.60;;;;;;4928502;29;20062;-78
2022/03/25 14:06:11;;;;;;;;;;;23.60;17.90;;;;;;4947252;28;20051;-78
2022/03/25 14:08:39;;;;;;;12.07;8.13;;;23.50;18.30;;;;;;4946137;28;19926;-77
2022/03/25 14:11:07;;;;;;;10.18;8.25;;;23.40;17.40;;;;;;4943079;29;20487;-77
2022/03/25 14:13:51;;;;;;;;;;;23.50;17.70;;;;;;4943223;29;20153;-77
2022/03/25 14:16:18;;;;;;;;;;;23.30;17.10;;;;;;4943890;28;19977;-77
2022/03/25 14:18:52;;;;;;;;;;;23.40;17.90;;;;;;4955020;28;19950;-77
2022/03/25 14:21:24;;;;;;;;;;;23.60;17.90;;;;;;4933326;28;20357;-79
2022/03/25 14:24:30;;;;;;;;;;;23.60;17.50;;;;;;4940429;29;20520;-77
2022/03/25 14:26:38;;;;;;;;;;;23.60;17.90;;;;;;4941899;29;19922;-77
2022/03/25 14:29:06;;;;;;;14.50;7.45;;;23.90;18.40;;;;;;4959211;28;19926;-77
2022/03/25 14:31:38;;;;;;;10.82;8.60;;;24.00;17.60;;;;;;4946607;29;20114;-78
2022/03/25 14:34:05;;;;;;;8.27;7.15;;;23.90;17.20;;;;;;4921314;29;20075;-77
2022/03/25 14:36:32;;;;;;;11.27;8.57;;;23.70;17.20;;;;;;4947948;28;20059;-77
2022/03/25 14:39:03;;;;;;;12.45;8.18;;;23.40;16.40;;;;;;4948988;29;20059;-78
2022/03/25 14:41:30;;;;;;;9.60;7.18;;;23.30;16.90;;;;;;4923288;29;20063;-77
2022/03/25 14:43:58;;;;;;;8.60;7.03;;;23.50;16.90;;;;;;4933498;29;20063;-77
2022/03/25 14:46:26;;;;;;;9.13;6.95;;;23.60;17.80;;;;;;4942116;29;20059;-77
2022/03/25 14:48:53;;;;;;;9.52;7.15;;;23.80;17.90;;;;;;4940164;29;20054;-77
2022/03/25 14:51:20;;;;;;;8.90;7.13;;;23.80;16.70;;;;;;4938561;29;20064;-77
2022/03/25 14:53:47;;;;;;;8.98;7.43;;;23.80;16.60;;;;;;4938333;29;20169;-79
2022/03/25 14:56:14;;;;;;;7.53;6.75;;;24.00;16.60;;;;;;4930604;29;20148;-78
2022/03/25 14:58:41;;;;;;;7.95;5.80;;;24.10;16.50;;;;;;4929234;29;20044;-79
2022/03/25 15:01:08;;;;;;;;;;;23.60;16.40;;;;;;4933745;29;20111;-78
2022/03/25 15:03:36;;;;;;;;;;;23.60;17.20;;;;;;4949018;29;19998;-78
2022/03/25 15:06:03;;;;;;;;;;;23.50;15.70;;;;;;4938530;29;19965;-78
2022/03/25 15:08:30;;;;;;;;;;;23.50;16.90;;;;;;4959656;28;19932;-78
2022/03/25 15:10:57;;;;;;;;;;;23.60;17.20;;;;;;4943478;29;20550;-78
2022/03/25 15:13:25;;;;;;;8.10;6.53;;;23.70;17.40;;;;;;4939687;28;19981;-77
2022/03/25 15:15:53;;;;;;;7.13;6.18;;;23.60;16.80;;;;;;4929661;29;20055;-78
2022/03/25 15:18:20;;;;;;;8.20;6.47;;;23.50;16.70;;;;;;4927301;28;20059;-78
2022/03/25 15:20:47;;;;;;;6.63;6.03;;;23.60;16.70;;;;;;4945106;29;20468;-80
2022/03/25 15:23:14;;;;;;;7.07;5.53;;;23.60;16.30;;;;;;4931332;29;20071;-78
2022/03/25 15:25:41;;;;;;;8.25;6.20;;;23.70;16.70;;;;;;4935751;28;20059;-78
2022/03/25 15:28:08;;;;;;;6.65;5.53;;;23.60;16.60;;;;;;4950193;28;20051;-79
2022/03/25 15:36:07;;;;;;;7.43;6.40;;;23.10;17.20;;;;;;4941675;28;20432;-78
2022/03/25 15:38:54;;;;;;;9.63;7.00;;;22.90;16.90;;;;;;4935402;29;20421;-79
2022/03/25 15:41:21;;;;;;;;;;;23.10;16.80;;;;;;4947645;29;20107;-79
2022/03/25 15:43:48;;;;;;;8.05;6.22;;;22.90;16.10;;;;;;4922094;29;19951;-78
2022/03/25 15:46:15;;;;;;;8.38;6.13;;;22.80;16.20;;;;;;4916262;29;20047;-80
2022/03/25 15:48:42;;;;;;;9.38;6.25;;;23.10;16.80;;;;;;4925463;29;20423;-79
2022/03/25 15:51:09;;;;;;;6.78;5.53;;;23.30;16.30;;;;;;4939840;29;20475;-79
2022/03/25 15:53:38;;;;;;;6.32;5.72;;;23.40;16.10;;;;;;4936801;29;20919;-79
2022/03/25 15:56:05;;;;;;;7.03;5.60;;;23.60;16.20;;;;;;4926928;29;20523;-78
2022/03/25 15:58:32;;;;;;;6.10;5.50;;;23.80;15.80;;;;;;4929822;29;20485;-80
2022/03/25 16:00:59;;;;;;;5.75;5.00;;;24.10;15.70;;;;;;4935659;29;20046;-76
2022/03/25 16:03:27;;;;;;;7.38;5.40;;;24.20;15.40;;;;;;4932959;29;20418;-79
2022/03/25 16:05:54;;;;;;;7.35;4.90;;;24.10;15.00;;;;;;4924112;29;20066;-78
2022/03/25 16:08:23;;;;;;;9.02;5.15;;;24.20;15.60;;;;;;4936573;29;20055;-79
2022/03/25 16:10:51;;;;;;;9.23;6.43;;;24.00;15.50;;;;;;4928625;29;20491;-79
2022/03/25 16:13:19;;;;;;;8.35;4.55;;;23.70;15.40;;;;;;4925304;29;20047;-79
2022/03/25 16:15:46;;;;;;;38.83;24.50;;;23.30;15.60;;;;;;4938729;29;20103;-79
2022/03/25 16:18:13;;;;;;;16.63;11.68;;;23.20;16.30;;;;;;4921781;29;20087;-78
2022/03/25 16:20:40;;;;;;;6.20;5.60;;;23.00;17.30;;;;;;4923502;29;20547;-79
2022/03/25 16:23:07;;;;;;;8.23;5.57;;;23.00;16.60;;;;;;4937377;29;20056;-79
2022/03/25 16:25:34;;;;;;;7.15;4.63;;;23.00;16.80;;;;;;4935059;28;20117;-77
2022/03/25 16:28:03;;;;;;;8.38;5.55;;;22.90;16.90;;;;;;4921748;28;20063;-79
2022/03/25 16:30:33;;;;;;;6.72;5.65;;;22.80;16.90;;;;;;4937815;29;20059;-76
2022/03/25 16:33:01;;;;;;;8.48;5.32;;;22.80;16.40;;;;;;4926889;29;20595;-77
2022/03/25 16:35:28;;;;;;;6.50;5.78;;;22.80;16.50;;;;;;4934794;29;20051;-76
2022/03/25 16:37:56;;;;;;;7.10;5.32;;;22.60;16.60;;;;;;4951656;28;20566;-77
2022/03/25 16:40:22;;;;;;;;;;;22.50;16.80;;;;;;4939148;28;20059;-78
2022/03/25 16:42:50;;;;;;;;;;;22.40;17.10;;;;;;4935151;29;20416;-78
2022/03/25 16:45:17;;;;;;;;;;;22.30;17.20;;;;;;4926249;29;19923;-78
2022/03/25 16:47:45;;;;;;;;;;;22.30;17.30;;;;;;4928506;29;19922;-78
2022/03/25 16:50:12;;;;;;;;;;;22.20;17.20;;;;;;4950563;29;20113;-77
2022/03/25 16:52:39;;;;;;;;;;;22.10;17.60;;;;;;4933419;29;20014;-77
2022/03/25 16:55:08;;;;;;;;;;;22.10;17.70;;;;;;4935776;29;19922;-78
2022/03/25 16:57:35;;;;;;;;;;;21.90;17.70;;;;;;4929170;29;19927;-78
2022/03/25 17:00:06;;;;;;;;;;;21.90;18.10;;;;;;4929518;29;19945;-76
2022/03/25 17:02:33;;;;;;;;;;;21.90;18.20;;;;;;4945370;29;19938;-78
2022/03/25 17:05:00;;;;;;;;;;;21.80;18.40;;;;;;4950421;28;19953;-78
2022/03/25 17:07:27;;;;;;;;;;;21.60;18.40;;;;;;4936114;29;19922;-77
2022/03/25 17:09:53;;;;;;;;;;;21.50;18.40;;;;;;4926262;28;19978;-77
2022/03/25 17:12:20;;;;;;;;;;;21.20;18.40;;;;;;4944368;28;19950;-78
2022/03/25 17:14:47;;;;;;;;;;;21.10;19.00;;;;;;4933659;28;19970;-78
2022/03/25 17:17:14;;;;;;;;;;;20.80;19.10;;;;;;4951250;28;19946;-77
2022/03/25 17:19:41;;;;;;;;;;;20.60;20.00;;;;;;4934192;28;19922;-78
2022/03/25 17:22:08;;;;;;;;;;;20.40;20.60;;;;;;4933850;28;20387;-77
2022/03/25 17:24:36;;;;;;;;;;;20.20;21.30;;;;;;4938785;29;19930;-76
2022/03/25 17:27:03;;;;;;;;;;;19.90;22.30;;;;;;4926069;29;21181;-78
2022/03/25 17:29:30;;;;;;;;;;;19.70;22.30;;;;;;4913711;29;19930;-78
2022/03/25 17:31:57;;;;;;;;;;;19.40;21.60;;;;;;4951915;28;20290;-77
2022/03/25 17:34:23;;;;;;;;;;;19.20;22.40;;;;;;4928287;29;20283;-77
2022/03/25 17:36:50;;;;;;;;;;;19.10;23.20;;;;;;4939693;28;19922;-77